sensor_id;sensor_type;location;lat;lon;timestamp;P1;durP1;ratioP1;P2;durP2;ratioP2
18838;SDS011;9548;56.920;14.804;2022-12-05T00:00:20;8.45;;;5.25;;
18838;SDS011;9548;56.920;14.804;2022-12-05T00:02:48;8.98;;;5.03;;
18838;SDS011;9548;56.920;14.804;2022-12-05T00:05:15;9.02;;;4.95;;
18838;SDS011;9548;56.920;14.804;2022-12-05T00:07:42;8.63;;;5.13;;
18838;SDS011;9548;56.920;14.804;2022-12-05T00:10:10;9.50;;;5.22;;
18838;SDS011;9548;56.920;14.804;2022-12-05T00:12:37;9.88;;;5.60;;
18838;SDS011;9548;56.920;14.804;2022-12-05T00:15:04;10.77;;;5.40;;
18838;SDS011;9548;56.920;14.804;2022-12-05T00:17:33;8.23;;;4.80;;
18838;SDS011;9548;56.920;14.804;2022-12-05T00:20:02;10.30;;;5.03;;
18838;SDS011;9548;56.920;14.804;2022-12-05T00:22:29;11.05;;;5.68;;
18838;SDS011;9548;56.920;14.804;2022-12-05T00:24:56;12.88;;;5.60;;
18838;SDS011;9548;56.920;14.804;2022-12-05T00:27:23;11.40;;;5.35;;
18838;SDS011;9548;56.920;14.804;2022-12-05T00:29:50;8.57;;;4.72;;
18838;SDS011;9548;56.920;14.804;2022-12-05T00:32:17;9.13;;;5.15;;
18838;SDS011;9548;56.920;14.804;2022-12-05T00:34:44;7.30;;;4.35;;
18838;SDS011;9548;56.920;14.804;2022-12-05T00:37:12;7.63;;;4.63;;
18838;SDS011;9548;56.920;14.804;2022-12-05T00:39:39;9.07;;;4.77;;
18838;SDS011;9548;56.920;14.804;2022-12-05T00:42:06;10.63;;;4.93;;
18838;SDS011;9548;56.920;14.804;2022-12-05T00:44:33;8.88;;;4.90;;
18838;SDS011;9548;56.920;14.804;2022-12-05T00:47:00;7.68;;;4.78;;
18838;SDS011;9548;56.920;14.804;2022-12-05T00:49:27;9.93;;;5.18;;
18838;SDS011;9548;56.920;14.804;2022-12-05T00:51:54;10.48;;;4.95;;
18838;SDS011;9548;56.920;14.804;2022-12-05T00:54:22;9.67;;;5.30;;
18838;SDS011;9548;56.920;14.804;2022-12-05T00:56:49;9.43;;;5.50;;
18838;SDS011;9548;56.920;14.804;2022-12-05T00:59:20;9.15;;;4.80;;
18838;SDS011;9548;56.920;14.804;2022-12-05T01:01:47;7.33;;;4.67;;
18838;SDS011;9548;56.920;14.804;2022-12-05T01:04:17;7.72;;;4.47;;
18838;SDS011;9548;56.920;14.804;2022-12-05T01:06:45;7.95;;;4.60;;
18838;SDS011;9548;56.920;14.804;2022-12-05T01:09:13;7.45;;;4.05;;
18838;SDS011;9548;56.920;14.804;2022-12-05T01:11:43;8.73;;;4.68;;
18838;SDS011;9548;56.920;14.804;2022-12-05T01:14:10;8.07;;;4.47;;
18838;SDS011;9548;56.920;14.804;2022-12-05T01:16:39;6.78;;;3.85;;
18838;SDS011;9548;56.920;14.804;2022-12-05T01:19:10;7.07;;;4.30;;
18838;SDS011;9548;56.920;14.804;2022-12-05T01:21:39;8.13;;;4.68;;
18838;SDS011;9548;56.920;14.804;2022-12-05T01:24:06;8.60;;;4.60;;
18838;SDS011;9548;56.920;14.804;2022-12-05T01:26:34;6.47;;;4.33;;
18838;SDS011;9548;56.920;14.804;2022-12-05T01:29:02;9.50;;;4.30;;
18838;SDS011;9548;56.920;14.804;2022-12-05T01:31:30;8.75;;;4.63;;
18838;SDS011;9548;56.920;14.804;2022-12-05T01:33:58;7.97;;;4.20;;
18838;SDS011;9548;56.920;14.804;2022-12-05T01:36:28;10.40;;;4.78;;
18838;SDS011;9548;56.920;14.804;2022-12-05T01:38:55;6.23;;;4.23;;
18838;SDS011;9548;56.920;14.804;2022-12-05T01:41:24;7.13;;;4.30;;
18838;SDS011;9548;56.920;14.804;2022-12-05T01:43:53;8.05;;;4.35;;
18838;SDS011;9548;56.920;14.804;2022-12-05T01:46:23;7.27;;;4.23;;
18838;SDS011;9548;56.920;14.804;2022-12-05T01:48:51;6.65;;;4.10;;
18838;SDS011;9548;56.920;14.804;2022-12-05T01:51:21;7.70;;;4.60;;
18838;SDS011;9548;56.920;14.804;2022-12-05T01:53:49;7.82;;;3.85;;
18838;SDS011;9548;56.920;14.804;2022-12-05T01:56:16;6.93;;;3.88;;
18838;SDS011;9548;56.920;14.804;2022-12-05T01:58:44;6.63;;;3.88;;
18838;SDS011;9548;56.920;14.804;2022-12-05T02:01:12;5.75;;;3.60;;
18838;SDS011;9548;56.920;14.804;2022-12-05T02:03:45;7.60;;;3.75;;
18838;SDS011;9548;56.920;14.804;2022-12-05T02:06:13;6.95;;;3.67;;
18838;SDS011;9548;56.920;14.804;2022-12-05T02:08:41;5.10;;;3.45;;
18838;SDS011;9548;56.920;14.804;2022-12-05T02:11:09;5.72;;;3.45;;
18838;SDS011;9548;56.920;14.804;2022-12-05T02:13:42;5.95;;;3.88;;
18838;SDS011;9548;56.920;14.804;2022-12-05T02:16:31;7.35;;;3.63;;
18838;SDS011;9548;56.920;14.804;2022-12-05T02:19:12;5.75;;;3.50;;
18838;SDS011;9548;56.920;14.804;2022-12-05T02:22:02;5.30;;;3.38;;
18838;SDS011;9548;56.920;14.804;2022-12-05T02:24:54;5.35;;;3.38;;
18838;SDS011;9548;56.920;14.804;2022-12-05T02:27:38;5.60;;;3.53;;
18838;SDS011;9548;56.920;14.804;2022-12-05T02:30:21;6.03;;;3.45;;
18838;SDS011;9548;56.920;14.804;2022-12-05T02:32:50;5.78;;;3.58;;
18838;SDS011;9548;56.920;14.804;2022-12-05T02:35:29;5.47;;;3.37;;
18838;SDS011;9548;56.920;14.804;2022-12-05T02:38:12;5.28;;;3.30;;
18838;SDS011;9548;56.920;14.804;2022-12-05T02:40:48;6.05;;;3.30;;
18838;SDS011;9548;56.920;14.804;2022-12-05T02:43:22;5.55;;;3.20;;
18838;SDS011;9548;56.920;14.804;2022-12-05T02:45:57;4.68;;;2.70;;
18838;SDS011;9548;56.920;14.804;2022-12-05T02:48:28;4.33;;;2.83;;
18838;SDS011;9548;56.920;14.804;2022-12-05T02:50:58;3.83;;;2.60;;
18838;SDS011;9548;56.920;14.804;2022-12-05T02:53:27;4.28;;;2.67;;
18838;SDS011;9548;56.920;14.804;2022-12-05T02:55:57;3.35;;;2.45;;
18838;SDS011;9548;56.920;14.804;2022-12-05T02:58:26;4.45;;;2.85;;
18838;SDS011;9548;56.920;14.804;2022-12-05T03:01:01;3.45;;;2.50;;
18838;SDS011;9548;56.920;14.804;2022-12-05T03:03:28;5.27;;;3.27;;
18838;SDS011;9548;56.920;14.804;2022-12-05T03:05:58;4.30;;;2.70;;
18838;SDS011;9548;56.920;14.804;2022-12-05T03:08:30;4.40;;;2.83;;
18838;SDS011;9548;56.920;14.804;2022-12-05T03:11:01;4.10;;;2.70;;
18838;SDS011;9548;56.920;14.804;2022-12-05T03:13:30;4.65;;;2.85;;
18838;SDS011;9548;56.920;14.804;2022-12-05T03:16:04;4.85;;;2.70;;
18838;SDS011;9548;56.920;14.804;2022-12-05T03:18:36;7.80;;;2.80;;
18838;SDS011;9548;56.920;14.804;2022-12-05T03:21:07;4.25;;;2.75;;
18838;SDS011;9548;56.920;14.804;2022-12-05T03:23:41;3.75;;;2.70;;
18838;SDS011;9548;56.920;14.804;2022-12-05T03:26:15;5.35;;;2.90;;
18838;SDS011;9548;56.920;14.804;2022-12-05T03:28:52;4.60;;;3.15;;
18838;SDS011;9548;56.920;14.804;2022-12-05T03:31:26;5.53;;;2.97;;
18838;SDS011;9548;56.920;14.804;2022-12-05T03:33:59;4.85;;;2.92;;
18838;SDS011;9548;56.920;14.804;2022-12-05T03:36:33;3.80;;;2.70;;
18838;SDS011;9548;56.920;14.804;2022-12-05T03:39:05;4.57;;;2.87;;
18838;SDS011;9548;56.920;14.804;2022-12-05T03:41:37;6.03;;;3.38;;
18838;SDS011;9548;56.920;14.804;2022-12-05T03:44:08;4.63;;;3.00;;
18838;SDS011;9548;56.920;14.804;2022-12-05T03:46:42;6.68;;;3.33;;
18838;SDS011;9548;56.920;14.804;2022-12-05T03:49:14;5.57;;;2.75;;
18838;SDS011;9548;56.920;14.804;2022-12-05T03:51:46;5.63;;;3.38;;
18838;SDS011;9548;56.920;14.804;2022-12-05T03:54:19;5.22;;;3.25;;
18838;SDS011;9548;56.920;14.804;2022-12-05T03:56:50;7.95;;;3.42;;
18838;SDS011;9548;56.920;14.804;2022-12-05T03:59:22;5.13;;;3.28;;
18838;SDS011;9548;56.920;14.804;2022-12-05T04:01:57;4.93;;;3.00;;
18838;SDS011;9548;56.920;14.804;2022-12-05T04:04:27;6.80;;;3.63;;
18838;SDS011;9548;56.920;14.804;2022-12-05T04:06:59;5.30;;;3.13;;
18838;SDS011;9548;56.920;14.804;2022-12-05T04:09:32;5.57;;;3.25;;
18838;SDS011;9548;56.920;14.804;2022-12-05T04:12:03;4.65;;;3.05;;
18838;SDS011;9548;56.920;14.804;2022-12-05T04:14:33;6.13;;;3.30;;
18838;SDS011;9548;56.920;14.804;2022-12-05T04:17:08;5.43;;;3.22;;
18838;SDS011;9548;56.920;14.804;2022-12-05T04:19:41;7.38;;;3.17;;
18838;SDS011;9548;56.920;14.804;2022-12-05T04:22:30;5.55;;;2.88;;
18838;SDS011;9548;56.920;14.804;2022-12-05T04:24:57;3.70;;;2.42;;
18838;SDS011;9548;56.920;14.804;2022-12-05T04:27:47;4.95;;;2.67;;
18838;SDS011;9548;56.920;14.804;2022-12-05T04:30:18;4.72;;;3.00;;
18838;SDS011;9548;56.920;14.804;2022-12-05T04:32:48;3.53;;;2.60;;
18838;SDS011;9548;56.920;14.804;2022-12-05T04:35:24;4.00;;;2.40;;
18838;SDS011;9548;56.920;14.804;2022-12-05T04:37:55;4.22;;;2.38;;
18838;SDS011;9548;56.920;14.804;2022-12-05T04:40:28;3.38;;;2.40;;
18838;SDS011;9548;56.920;14.804;2022-12-05T04:42:59;3.85;;;2.10;;
18838;SDS011;9548;56.920;14.804;2022-12-05T04:45:28;4.13;;;2.40;;
18838;SDS011;9548;56.920;14.804;2022-12-05T04:48:00;4.18;;;2.40;;
18838;SDS011;9548;56.920;14.804;2022-12-05T04:50:32;3.22;;;2.38;;
18838;SDS011;9548;56.920;14.804;2022-12-05T04:53:01;3.42;;;2.13;;
18838;SDS011;9548;56.920;14.804;2022-12-05T04:55:29;3.72;;;2.20;;
18838;SDS011;9548;56.920;14.804;2022-12-05T04:58:02;3.38;;;2.22;;
18838;SDS011;9548;56.920;14.804;2022-12-05T05:00:33;4.15;;;2.00;;
18838;SDS011;9548;56.920;14.804;2022-12-05T05:03:07;3.03;;;1.88;;
18838;SDS011;9548;56.920;14.804;2022-12-05T05:05:43;2.53;;;1.80;;
18838;SDS011;9548;56.920;14.804;2022-12-05T05:08:14;3.00;;;1.67;;
18838;SDS011;9548;56.920;14.804;2022-12-05T05:10:45;2.38;;;1.60;;
18838;SDS011;9548;56.920;14.804;2022-12-05T05:13:20;2.97;;;2.00;;
18838;SDS011;9548;56.920;14.804;2022-12-05T05:15:47;2.47;;;1.45;;
18838;SDS011;9548;56.920;14.804;2022-12-05T05:18:16;2.95;;;1.55;;
18838;SDS011;9548;56.920;14.804;2022-12-05T05:20:43;2.60;;;1.70;;
18838;SDS011;9548;56.920;14.804;2022-12-05T05:23:10;2.08;;;1.40;;
18838;SDS011;9548;56.920;14.804;2022-12-05T05:25:37;2.58;;;1.70;;
18838;SDS011;9548;56.920;14.804;2022-12-05T05:28:04;3.20;;;1.88;;
18838;SDS011;9548;56.920;14.804;2022-12-05T05:30:31;2.85;;;1.60;;
18838;SDS011;9548;56.920;14.804;2022-12-05T05:32:58;1.63;;;1.38;;
18838;SDS011;9548;56.920;14.804;2022-12-05T05:35:27;1.77;;;1.30;;
18838;SDS011;9548;56.920;14.804;2022-12-05T05:37:54;1.77;;;1.45;;
18838;SDS011;9548;56.920;14.804;2022-12-05T05:40:21;2.28;;;1.10;;
18838;SDS011;9548;56.920;14.804;2022-12-05T05:42:48;1.80;;;1.30;;
18838;SDS011;9548;56.920;14.804;2022-12-05T05:45:15;1.25;;;1.05;;
18838;SDS011;9548;56.920;14.804;2022-12-05T05:47:43;1.73;;;1.20;;
18838;SDS011;9548;56.920;14.804;2022-12-05T05:50:10;1.98;;;1.33;;
18838;SDS011;9548;56.920;14.804;2022-12-05T05:52:39;1.73;;;1.20;;
18838;SDS011;9548;56.920;14.804;2022-12-05T05:55:06;1.92;;;1.20;;
18838;SDS011;9548;56.920;14.804;2022-12-05T05:57:33;2.55;;;1.20;;
18838;SDS011;9548;56.920;14.804;2022-12-05T06:00:02;2.15;;;1.13;;
18838;SDS011;9548;56.920;14.804;2022-12-05T06:02:31;1.35;;;1.20;;
18838;SDS011;9548;56.920;14.804;2022-12-05T06:04:58;3.10;;;1.00;;
18838;SDS011;9548;56.920;14.804;2022-12-05T06:07:25;1.20;;;0.90;;
18838;SDS011;9548;56.920;14.804;2022-12-05T06:09:54;1.27;;;0.90;;
18838;SDS011;9548;56.920;14.804;2022-12-05T06:12:20;1.33;;;0.88;;
18838;SDS011;9548;56.920;14.804;2022-12-05T06:14:48;1.23;;;0.90;;
18838;SDS011;9548;56.920;14.804;2022-12-05T06:17:15;1.20;;;0.80;;
18838;SDS011;9548;56.920;14.804;2022-12-05T06:19:42;3.50;;;1.00;;
18838;SDS011;9548;56.920;14.804;2022-12-05T06:22:09;0.93;;;0.82;;
18838;SDS011;9548;56.920;14.804;2022-12-05T06:24:36;0.93;;;0.70;;
18838;SDS011;9548;56.920;14.804;2022-12-05T06:27:05;1.05;;;0.93;;
18838;SDS011;9548;56.920;14.804;2022-12-05T06:29:32;0.85;;;0.77;;
18838;SDS011;9548;56.920;14.804;2022-12-05T06:31:59;1.30;;;0.83;;
18838;SDS011;9548;56.920;14.804;2022-12-05T06:34:27;1.20;;;0.88;;
18838;SDS011;9548;56.920;14.804;2022-12-05T06:36:54;1.15;;;0.82;;
18838;SDS011;9548;56.920;14.804;2022-12-05T06:39:20;1.23;;;1.10;;
18838;SDS011;9548;56.920;14.804;2022-12-05T06:41:47;1.10;;;0.80;;
18838;SDS011;9548;56.920;14.804;2022-12-05T06:44:16;0.70;;;0.70;;
18838;SDS011;9548;56.920;14.804;2022-12-05T06:46:43;1.00;;;0.80;;
18838;SDS011;9548;56.920;14.804;2022-12-05T06:49:10;5.65;;;0.82;;
18838;SDS011;9548;56.920;14.804;2022-12-05T06:51:37;0.60;;;0.60;;
18838;SDS011;9548;56.920;14.804;2022-12-05T06:54:03;0.70;;;0.70;;
18838;SDS011;9548;56.920;14.804;2022-12-05T06:56:31;1.20;;;0.80;;
18838;SDS011;9548;56.920;14.804;2022-12-05T06:58:57;0.75;;;0.63;;
18838;SDS011;9548;56.920;14.804;2022-12-05T07:01:26;0.93;;;0.75;;
18838;SDS011;9548;56.920;14.804;2022-12-05T07:04:05;0.63;;;0.60;;
18838;SDS011;9548;56.920;14.804;2022-12-05T07:06:35;1.13;;;0.80;;
18838;SDS011;9548;56.920;14.804;2022-12-05T07:09:03;0.83;;;0.50;;
18838;SDS011;9548;56.920;14.804;2022-12-05T07:11:31;0.85;;;0.68;;
18838;SDS011;9548;56.920;14.804;2022-12-05T07:13:58;0.90;;;0.50;;
18838;SDS011;9548;56.920;14.804;2022-12-05T07:16:27;0.70;;;0.50;;
18838;SDS011;9548;56.920;14.804;2022-12-05T07:18:54;0.53;;;0.50;;
18838;SDS011;9548;56.920;14.804;2022-12-05T07:21:21;0.67;;;0.60;;
18838;SDS011;9548;56.920;14.804;2022-12-05T07:23:49;0.90;;;0.50;;
18838;SDS011;9548;56.920;14.804;2022-12-05T07:26:17;0.70;;;0.70;;
18838;SDS011;9548;56.920;14.804;2022-12-05T07:28:46;1.00;;;0.80;;
18838;SDS011;9548;56.920;14.804;2022-12-05T07:31:14;0.82;;;0.77;;
18838;SDS011;9548;56.920;14.804;2022-12-05T07:33:44;1.00;;;0.90;;
18838;SDS011;9548;56.920;14.804;2022-12-05T07:36:12;0.97;;;0.63;;
18838;SDS011;9548;56.920;14.804;2022-12-05T07:38:41;1.38;;;0.90;;
18838;SDS011;9548;56.920;14.804;2022-12-05T07:41:09;0.93;;;0.77;;
18838;SDS011;9548;56.920;14.804;2022-12-05T07:43:39;1.00;;;0.80;;
18838;SDS011;9548;56.920;14.804;2022-12-05T07:46:06;1.03;;;0.70;;
18838;SDS011;9548;56.920;14.804;2022-12-05T07:48:35;0.85;;;0.68;;
18838;SDS011;9548;56.920;14.804;2022-12-05T07:51:04;0.90;;;0.80;;
18838;SDS011;9548;56.920;14.804;2022-12-05T07:53:32;0.97;;;0.70;;
18838;SDS011;9548;56.920;14.804;2022-12-05T07:55:59;0.60;;;0.50;;
18838;SDS011;9548;56.920;14.804;2022-12-05T07:58:28;0.93;;;0.63;;
18838;SDS011;9548;56.920;14.804;2022-12-05T08:00:55;0.70;;;0.60;;
18838;SDS011;9548;56.920;14.804;2022-12-05T08:03:23;0.70;;;0.60;;
18838;SDS011;9548;56.920;14.804;2022-12-05T08:05:50;0.80;;;0.70;;
18838;SDS011;9548;56.920;14.804;2022-12-05T08:08:18;0.82;;;0.70;;
18838;SDS011;9548;56.920;14.804;2022-12-05T08:10:45;0.83;;;0.67;;
18838;SDS011;9548;56.920;14.804;2022-12-05T08:13:12;0.60;;;0.60;;
18838;SDS011;9548;56.920;14.804;2022-12-05T08:15:39;1.07;;;0.73;;
18838;SDS011;9548;56.920;14.804;2022-12-05T08:18:06;1.10;;;0.70;;
18838;SDS011;9548;56.920;14.804;2022-12-05T08:20:33;1.55;;;0.80;;
18838;SDS011;9548;56.920;14.804;2022-12-05T08:23:00;0.68;;;0.60;;
18838;SDS011;9548;56.920;14.804;2022-12-05T08:25:28;0.80;;;0.80;;
18838;SDS011;9548;56.920;14.804;2022-12-05T08:27:55;1.10;;;0.70;;
18838;SDS011;9548;56.920;14.804;2022-12-05T08:30:22;1.13;;;0.70;;
18838;SDS011;9548;56.920;14.804;2022-12-05T08:32:48;1.10;;;0.63;;
18838;SDS011;9548;56.920;14.804;2022-12-05T08:35:15;0.50;;;0.50;;
18838;SDS011;9548;56.920;14.804;2022-12-05T08:37:42;2.92;;;0.70;;
18838;SDS011;9548;56.920;14.804;2022-12-05T08:40:10;0.80;;;0.80;;
18838;SDS011;9548;56.920;14.804;2022-12-05T08:42:38;0.90;;;0.80;;
18838;SDS011;9548;56.920;14.804;2022-12-05T08:45:06;1.43;;;0.60;;
18838;SDS011;9548;56.920;14.804;2022-12-05T08:47:33;0.77;;;0.77;;
18838;SDS011;9548;56.920;14.804;2022-12-05T08:50:01;0.90;;;0.60;;
18838;SDS011;9548;56.920;14.804;2022-12-05T08:52:28;0.60;;;0.60;;
18838;SDS011;9548;56.920;14.804;2022-12-05T08:54:55;0.98;;;0.80;;
18838;SDS011;9548;56.920;14.804;2022-12-05T08:57:22;1.27;;;0.70;;
18838;SDS011;9548;56.920;14.804;2022-12-05T08:59:50;0.77;;;0.65;;
18838;SDS011;9548;56.920;14.804;2022-12-05T09:02:17;1.00;;;0.82;;
18838;SDS011;9548;56.920;14.804;2022-12-05T09:04:44;1.00;;;0.60;;
18838;SDS011;9548;56.920;14.804;2022-12-05T09:07:15;1.00;;;0.90;;
18838;SDS011;9548;56.920;14.804;2022-12-05T09:09:41;0.75;;;0.63;;
18838;SDS011;9548;56.920;14.804;2022-12-05T09:12:08;0.77;;;0.77;;
18838;SDS011;9548;56.920;14.804;2022-12-05T09:14:35;0.93;;;0.75;;
18838;SDS011;9548;56.920;14.804;2022-12-05T09:17:04;1.50;;;0.80;;
18838;SDS011;9548;56.920;14.804;2022-12-05T09:19:31;0.95;;;0.80;;
18838;SDS011;9548;56.920;14.804;2022-12-05T09:21:58;0.70;;;0.52;;
18838;SDS011;9548;56.920;14.804;2022-12-05T09:24:25;2.42;;;1.58;;
18838;SDS011;9548;56.920;14.804;2022-12-05T09:26:52;4.53;;;2.00;;
18838;SDS011;9548;56.920;14.804;2022-12-05T09:29:19;3.30;;;1.90;;
18838;SDS011;9548;56.920;14.804;2022-12-05T09:31:46;3.17;;;1.77;;
18838;SDS011;9548;56.920;14.804;2022-12-05T09:34:17;2.45;;;1.55;;
18838;SDS011;9548;56.920;14.804;2022-12-05T09:36:44;2.55;;;1.25;;
18838;SDS011;9548;56.920;14.804;2022-12-05T09:39:15;1.00;;;0.85;;
18838;SDS011;9548;56.920;14.804;2022-12-05T09:41:55;1.07;;;0.90;;
18838;SDS011;9548;56.920;14.804;2022-12-05T09:44:40;1.00;;;0.82;;
18838;SDS011;9548;56.920;14.804;2022-12-05T09:47:11;2.60;;;2.20;;
18838;SDS011;9548;56.920;14.804;2022-12-05T09:49:48;1.38;;;1.20;;
18838;SDS011;9548;56.920;14.804;2022-12-05T09:52:21;0.88;;;0.82;;
18838;SDS011;9548;56.920;14.804;2022-12-05T09:54:50;0.70;;;0.70;;
18838;SDS011;9548;56.920;14.804;2022-12-05T09:57:18;0.60;;;0.57;;
18838;SDS011;9548;56.920;14.804;2022-12-05T09:59:54;0.87;;;0.70;;
18838;SDS011;9548;56.920;14.804;2022-12-05T10:02:23;1.00;;;0.68;;
18838;SDS011;9548;56.920;14.804;2022-12-05T10:04:57;0.50;;;0.50;;
18838;SDS011;9548;56.920;14.804;2022-12-05T10:07:30;0.60;;;0.60;;
18838;SDS011;9548;56.920;14.804;2022-12-05T10:10:07;0.60;;;0.60;;
18838;SDS011;9548;56.920;14.804;2022-12-05T10:12:52;0.70;;;0.70;;
18838;SDS011;9548;56.920;14.804;2022-12-05T10:15:29;0.38;;;0.38;;
18838;SDS011;9548;56.920;14.804;2022-12-05T10:18:00;1.38;;;0.65;;
18838;SDS011;9548;56.920;14.804;2022-12-05T10:20:32;0.60;;;0.55;;
18838;SDS011;9548;56.920;14.804;2022-12-05T10:23:01;0.40;;;0.40;;
18838;SDS011;9548;56.920;14.804;2022-12-05T10:25:30;0.57;;;0.55;;
18838;SDS011;9548;56.920;14.804;2022-12-05T10:27:59;0.50;;;0.50;;
18838;SDS011;9548;56.920;14.804;2022-12-05T10:30:28;0.85;;;0.52;;
18838;SDS011;9548;56.920;14.804;2022-12-05T10:33:00;0.88;;;0.68;;
18838;SDS011;9548;56.920;14.804;2022-12-05T10:35:32;0.52;;;0.50;;
18838;SDS011;9548;56.920;14.804;2022-12-05T10:38:02;0.32;;;0.32;;
18838;SDS011;9548;56.920;14.804;2022-12-05T10:40:32;0.30;;;0.30;;
18838;SDS011;9548;56.920;14.804;2022-12-05T10:43:02;0.40;;;0.30;;
18838;SDS011;9548;56.920;14.804;2022-12-05T10:45:30;0.40;;;0.40;;
18838;SDS011;9548;56.920;14.804;2022-12-05T10:47:57;0.30;;;0.30;;
18838;SDS011;9548;56.920;14.804;2022-12-05T10:50:27;0.30;;;0.30;;
18838;SDS011;9548;56.920;14.804;2022-12-05T10:52:58;0.30;;;0.30;;
18838;SDS011;9548;56.920;14.804;2022-12-05T10:55:29;0.60;;;0.32;;
18838;SDS011;9548;56.920;14.804;2022-12-05T10:58:09;0.52;;;0.20;;
18838;SDS011;9548;56.920;14.804;2022-12-05T11:00:38;0.40;;;0.40;;
18838;SDS011;9548;56.920;14.804;2022-12-05T11:03:21;0.40;;;0.30;;
18838;SDS011;9548;56.920;14.804;2022-12-05T11:05:54;0.27;;;0.20;;
18838;SDS011;9548;56.920;14.804;2022-12-05T11:08:24;0.30;;;0.30;;
18838;SDS011;9548;56.920;14.804;2022-12-05T11:11:00;3.35;;;2.10;;
18838;SDS011;9548;56.920;14.804;2022-12-05T11:13:28;3.47;;;2.05;;
18838;SDS011;9548;56.920;14.804;2022-12-05T11:15:55;1.50;;;0.88;;
18838;SDS011;9548;56.920;14.804;2022-12-05T11:18:29;0.40;;;0.40;;
18838;SDS011;9548;56.920;14.804;2022-12-05T11:21:07;0.33;;;0.33;;
18838;SDS011;9548;56.920;14.804;2022-12-05T11:23:37;0.20;;;0.20;;
18838;SDS011;9548;56.920;14.804;2022-12-05T11:26:05;0.30;;;0.30;;
18838;SDS011;9548;56.920;14.804;2022-12-05T11:28:43;0.35;;;0.30;;
18838;SDS011;9548;56.920;14.804;2022-12-05T11:31:21;0.20;;;0.20;;
18838;SDS011;9548;56.920;14.804;2022-12-05T11:33:59;0.30;;;0.30;;
18838;SDS011;9548;56.920;14.804;2022-12-05T11:36:38;0.63;;;0.60;;
18838;SDS011;9548;56.920;14.804;2022-12-05T11:39:10;0.50;;;0.50;;
18838;SDS011;9548;56.920;14.804;2022-12-05T11:41:41;0.32;;;0.32;;
18838;SDS011;9548;56.920;14.804;2022-12-05T11:44:25;0.43;;;0.40;;
18838;SDS011;9548;56.920;14.804;2022-12-05T11:47:08;0.30;;;0.30;;
18838;SDS011;9548;56.920;14.804;2022-12-05T11:49:49;0.40;;;0.20;;
18838;SDS011;9548;56.920;14.804;2022-12-05T11:52:29;0.30;;;0.30;;
18838;SDS011;9548;56.920;14.804;2022-12-05T11:55:09;0.40;;;0.40;;
18838;SDS011;9548;56.920;14.804;2022-12-05T12:00:48;0.20;;;0.20;;
18838;SDS011;9548;56.920;14.804;2022-12-05T12:03:32;0.22;;;0.22;;
18838;SDS011;9548;56.920;14.804;2022-12-05T12:06:19;0.22;;;0.22;;
18838;SDS011;9548;56.920;14.804;2022-12-05T12:08:56;0.25;;;0.25;;
18838;SDS011;9548;56.920;14.804;2022-12-05T12:11:40;0.30;;;0.30;;
18838;SDS011;9548;56.920;14.804;2022-12-05T12:14:13;0.22;;;0.22;;
18838;SDS011;9548;56.920;14.804;2022-12-05T12:16:46;0.20;;;0.20;;
18838;SDS011;9548;56.920;14.804;2022-12-05T12:19:26;0.20;;;0.20;;
18838;SDS011;9548;56.920;14.804;2022-12-05T12:22:06;1.53;;;0.73;;
18838;SDS011;9548;56.920;14.804;2022-12-05T12:24:50;3.63;;;1.15;;
18838;SDS011;9548;56.920;14.804;2022-12-05T12:27:30;4.28;;;1.70;;
18838;SDS011;9548;56.920;14.804;2022-12-05T12:30:05;4.30;;;2.13;;
18838;SDS011;9548;56.920;14.804;2022-12-05T12:32:41;2.15;;;0.90;;
18838;SDS011;9548;56.920;14.804;2022-12-05T12:35:23;7.90;;;3.30;;
18838;SDS011;9548;56.920;14.804;2022-12-05T12:38:01;2.92;;;1.50;;
18838;SDS011;9548;56.920;14.804;2022-12-05T12:40:49;0.93;;;0.85;;
18838;SDS011;9548;56.920;14.804;2022-12-05T12:43:23;0.57;;;0.57;;
18838;SDS011;9548;56.920;14.804;2022-12-05T12:46:13;0.47;;;0.47;;
18838;SDS011;9548;56.920;14.804;2022-12-05T12:48:52;0.43;;;0.30;;
18838;SDS011;9548;56.920;14.804;2022-12-05T12:51:33;1.70;;;0.40;;
18838;SDS011;9548;56.920;14.804;2022-12-05T12:54:25;0.50;;;0.50;;
18838;SDS011;9548;56.920;14.804;2022-12-05T12:57:11;0.40;;;0.40;;
18838;SDS011;9548;56.920;14.804;2022-12-05T12:59:55;0.30;;;0.30;;
18838;SDS011;9548;56.920;14.804;2022-12-05T13:02:30;0.50;;;0.50;;
18838;SDS011;9548;56.920;14.804;2022-12-05T13:05:03;0.70;;;0.50;;
18838;SDS011;9548;56.920;14.804;2022-12-05T13:07:34;0.27;;;0.27;;
18838;SDS011;9548;56.920;14.804;2022-12-05T13:10:10;0.30;;;0.30;;
18838;SDS011;9548;56.920;14.804;2022-12-05T13:12:42;0.30;;;0.30;;
18838;SDS011;9548;56.920;14.804;2022-12-05T13:15:12;1.87;;;0.30;;
18838;SDS011;9548;56.920;14.804;2022-12-05T13:17:42;0.50;;;0.30;;
18838;SDS011;9548;56.920;14.804;2022-12-05T13:20:13;0.50;;;0.30;;
18838;SDS011;9548;56.920;14.804;2022-12-05T13:22:42;1.95;;;0.40;;
18838;SDS011;9548;56.920;14.804;2022-12-05T13:25:12;0.28;;;0.22;;
18838;SDS011;9548;56.920;14.804;2022-12-05T13:27:39;0.60;;;0.40;;
18838;SDS011;9548;56.920;14.804;2022-12-05T13:30:22;0.70;;;0.52;;
18838;SDS011;9548;56.920;14.804;2022-12-05T13:32:54;0.70;;;0.70;;
18838;SDS011;9548;56.920;14.804;2022-12-05T13:35:25;0.95;;;0.80;;
18838;SDS011;9548;56.920;14.804;2022-12-05T13:38:18;0.50;;;0.50;;
18838;SDS011;9548;56.920;14.804;2022-12-05T13:41:04;1.02;;;0.90;;
18838;SDS011;9548;56.920;14.804;2022-12-05T13:43:49;0.70;;;0.50;;
18838;SDS011;9548;56.920;14.804;2022-12-05T13:46:21;0.40;;;0.40;;
18838;SDS011;9548;56.920;14.804;2022-12-05T13:48:55;0.50;;;0.50;;
18838;SDS011;9548;56.920;14.804;2022-12-05T13:51:29;0.73;;;0.70;;
18838;SDS011;9548;56.920;14.804;2022-12-05T13:53:59;1.83;;;1.10;;
18838;SDS011;9548;56.920;14.804;2022-12-05T13:56:46;0.95;;;0.75;;
18838;SDS011;9548;56.920;14.804;2022-12-05T14:11:20;0.63;;;0.50;;
18838;SDS011;9548;56.920;14.804;2022-12-05T14:13:47;0.80;;;0.60;;
18838;SDS011;9548;56.920;14.804;2022-12-05T14:19:25;4.90;;;0.90;;
18838;SDS011;9548;56.920;14.804;2022-12-05T14:22:16;0.98;;;0.88;;
18838;SDS011;9548;56.920;14.804;2022-12-05T14:25:10;1.20;;;1.10;;
18838;SDS011;9548;56.920;14.804;2022-12-05T14:27:48;3.78;;;1.10;;
18838;SDS011;9548;56.920;14.804;2022-12-05T14:30:22;1.52;;;1.30;;
18838;SDS011;9548;56.920;14.804;2022-12-05T14:32:55;5.68;;;2.30;;
18838;SDS011;9548;56.920;14.804;2022-12-05T14:35:29;7.53;;;3.33;;
18838;SDS011;9548;56.920;14.804;2022-12-05T14:37:57;7.50;;;3.70;;
18838;SDS011;9548;56.920;14.804;2022-12-05T14:40:28;3.50;;;2.08;;
18838;SDS011;9548;56.920;14.804;2022-12-05T14:42:58;5.97;;;2.40;;
18838;SDS011;9548;56.920;14.804;2022-12-05T14:45:27;4.00;;;1.90;;
18838;SDS011;9548;56.920;14.804;2022-12-05T14:47:57;5.57;;;2.50;;
18838;SDS011;9548;56.920;14.804;2022-12-05T14:53:23;1.10;;;1.00;;
18838;SDS011;9548;56.920;14.804;2022-12-05T14:55:57;1.97;;;1.10;;
18838;SDS011;9548;56.920;14.804;2022-12-05T14:58:34;1.23;;;1.00;;
18838;SDS011;9548;56.920;14.804;2022-12-05T15:01:06;0.73;;;0.70;;
18838;SDS011;9548;56.920;14.804;2022-12-05T15:03:41;0.83;;;0.57;;
18838;SDS011;9548;56.920;14.804;2022-12-05T15:06:17;0.80;;;0.47;;
18838;SDS011;9548;56.920;14.804;2022-12-05T15:08:47;3.58;;;1.92;;
18838;SDS011;9548;56.920;14.804;2022-12-05T15:11:17;2.80;;;1.20;;
18838;SDS011;9548;56.920;14.804;2022-12-05T15:13:54;3.67;;;2.13;;
18838;SDS011;9548;56.920;14.804;2022-12-05T15:16:25;2.58;;;1.73;;
18838;SDS011;9548;56.920;14.804;2022-12-05T15:18:55;3.38;;;2.20;;
18838;SDS011;9548;56.920;14.804;2022-12-05T15:21:28;2.73;;;1.87;;
18838;SDS011;9548;56.920;14.804;2022-12-05T15:23:58;3.08;;;1.70;;
18838;SDS011;9548;56.920;14.804;2022-12-05T15:26:28;1.60;;;1.30;;
18838;SDS011;9548;56.920;14.804;2022-12-05T15:29:02;1.45;;;1.20;;
18838;SDS011;9548;56.920;14.804;2022-12-05T15:31:32;1.20;;;1.00;;
18838;SDS011;9548;56.920;14.804;2022-12-05T15:34:04;3.22;;;1.30;;